Time;durP1;ratioP1;P1;durP2;ratioP2;P2;SDS_P1;SDS_P2;PMS_P1;PMS_P2;Temp;Humidity;BMP_temperature;BMP_pressure;BME280_temperature;BME280_humidity;BME280_pressure;Samples;Min_cycle;Max_cycle;Signal;HPM_P1;HPM_P2
2020/12/12 00:02:01;;;;;;;;;;;;;;;;;;4974337;28;19930;-87
2020/12/12 00:04:29;;;;;;;;;;;;;;;;;;4973501;28;20029;-85
2020/12/12 00:06:56;;;;;;;;;;;;;;;;;;4966093;28;20021;-85
2020/12/12 00:09:23;;;;;;;;;;;;;;;;;;4973596;28;20025;-86
2020/12/12 00:11:51;;;;;;;;;;;;;;;;;;4973609;28;20388;-85
2020/12/12 00:14:19;;;;;;;;;;;;;;;;;;4972679;28;20229;-85
2020/12/12 00:16:47;;;;;;;;;;;;;;;;;;4974700;28;19927;-85
2020/12/12 00:19:14;;;;;;;;;;;;;;;;;;4973743;28;19950;-86
2020/12/12 00:21:41;;;;;;;;;;;;;;;;;;4974048;28;20017;-85
2020/12/12 00:24:08;;;;;;;;;;;;;;;;;;4974567;28;19926;-85
2020/12/12 00:26:36;;;;;;;;;;;;;;;;;;4973804;28;19926;-85
2020/12/12 00:29:03;;;;;;;;;;;;;;;;;;4973158;28;19975;-85
2020/12/12 00:31:30;;;;;;;;;;;;;;;;;;4973331;28;20020;-86
2020/12/12 00:33:57;;;;;;;;;;;;;;;;;;4971242;28;20277;-85
2020/12/12 00:36:24;;;;;;;;;;;;;;;;;;4977682;28;19937;-86
2020/12/12 00:38:51;;;;;;;;;;;;;;;;;;4978322;28;19930;-85
2020/12/12 00:41:19;;;;;;;;;;;;;;;;;;4977530;28;19926;-85
2020/12/12 00:43:46;;;;;;;;;;;;;;;;;;4981486;28;19965;-86
2020/12/12 00:46:13;;;;;;;;;;;;;;;;;;4959132;29;20025;-85
2020/12/12 00:48:40;;;;;;;;;;;;;;;;;;4976281;28;20018;-85
2020/12/12 00:51:07;;;;;;;;;;;;;;;;;;4976995;28;19932;-85
2020/12/12 00:53:34;;;;;;;;;;;;;;;;;;4976992;28;20370;-85
2020/12/12 00:56:02;;;;;;;;;;;;;;;;;;4977221;28;20274;-85
2020/12/12 00:58:29;;;;;;;;;;;;;;;;;;4977171;28;20037;-85
2020/12/12 01:00:56;;;;;;;;;;;;;;;;;;4975964;28;20380;-86
2020/12/12 01:03:23;;;;;;;;;;;;;;;;;;4976447;28;19973;-85
2020/12/12 01:05:50;;;;;;;;;;;;;;;;;;4976949;28;19929;-85
2020/12/12 01:08:17;;;;;;;;;;;;;;;;;;4976066;28;20017;-85
2020/12/12 01:10:45;;;;;;;;;;;;;;;;;;4975889;28;20026;-86
2020/12/12 01:13:12;;;;;;;;;;;;;;;;;;4977117;28;20029;-85
2020/12/12 01:15:39;;;;;;;;;;;;;;;;;;4976177;28;20370;-85
2020/12/12 01:18:06;;;;;;;;;;;;;;;;;;4975779;28;20370;-84
2020/12/12 01:20:33;;;;;;;;;;;;;;;;;;4975869;28;20048;-84
2020/12/12 01:23:00;;;;;;;;;;;;;;;;;;4976616;28;19926;-84
2020/12/12 01:25:27;;;;;;;;;;;;;;;;;;4976830;28;20013;-84
2020/12/12 01:27:55;;;;;;;;;;;;;;;;;;4976033;28;19957;-84
2020/12/12 01:30:22;;;;;;;;;;;;;;;;;;4975112;28;19926;-84
2020/12/12 01:32:49;;;;;;;;;;;;;;;;;;4968634;28;20576;-84
2020/12/12 01:35:16;;;;;;;;;;;;;;;;;;4966187;28;19926;-84
2020/12/12 01:37:43;;;;;;;;;;;;;;;;;;4975024;28;20389;-84
2020/12/12 01:40:11;;;;;;;;;;;;;;;;;;4976465;28;19977;-84
2020/12/12 01:42:38;;;;;;;;;;;;;;;;;;4976391;28;19930;-84
2020/12/12 01:45:05;;;;;;;;;;;;;;;;;;4976396;28;19977;-84
2020/12/12 01:47:32;;;;;;;;;;;;;;;;;;4976561;28;20009;-84
2020/12/12 01:49:59;;;;;;;;;;;;;;;;;;4975162;28;20017;-84
2020/12/12 01:52:26;;;;;;;;;;;;;;;;;;4976254;28;20417;-84
2020/12/12 01:54:53;;;;;;;;;;;;;;;;;;4976030;28;19933;-85
2020/12/12 01:57:21;;;;;;;;;;;;;;;;;;4976452;28;20002;-84
2020/12/12 01:59:48;;;;;;;;;;;;;;;;;;4974867;28;19930;-84
2020/12/12 02:02:16;;;;;;;;;;;;;;;;;;4989225;23;20288;-65
2020/12/12 02:04:43;;;;;;;;;;;;;;;;;;4973636;28;19929;-64
2020/12/12 02:07:10;;;;;;;;;;;;;;;;;;4972754;28;19961;-68
2020/12/12 02:09:37;;;;;;;;;;;;;;;;;;4972192;28;19936;-64
2020/12/12 02:12:04;;;;;;;;;;;;;;;;;;4972823;28;19930;-63
2020/12/12 02:14:31;;;;;;;;;;;;;;;;;;4972714;28;19930;-68
2020/12/12 02:17:00;;;;;;;;;;;;;;;;;;4969022;28;19930;-63
2020/12/12 02:19:27;;;;;;;;;;;;;;;;;;4966347;28;19933;-64
2020/12/12 02:21:54;;;;;;;;;;;;;;;;;;4972677;28;19930;-64
2020/12/12 02:24:21;;;;;;;;;;;;;;;;;;4972652;28;19937;-64
2020/12/12 02:26:48;;;;;;;;;;;;;;;;;;4972673;28;19926;-64
2020/12/12 02:29:16;;;;;;;;;;;;;;;;;;4971970;28;19926;-63
2020/12/12 02:31:43;;;;;;;;;;;;;;;;;;4972807;28;19984;-64
2020/12/12 02:34:11;;;;;;;;;;;;;;;;;;4969997;28;19988;-64
2020/12/12 02:36:38;;;;;;;;;;;;;;;;;;4973155;28;19929;-64
2020/12/12 02:39:05;;;;;;;;;;;;;;;;;;4971864;28;19930;-65
2020/12/12 02:41:32;;;;;;;;;;;;;;;;;;4952890;29;19965;-64
2020/12/12 02:43:59;;;;;;;;;;;;;;;;;;4964627;28;20014;-64
2020/12/12 02:46:26;;;;;;;;;;;;;;;;;;4972585;28;19926;-64
2020/12/12 02:48:53;;;;;;;;;;;;;;;;;;4971965;28;19934;-68
2020/12/12 02:51:20;;;;;;;;;;;;;;;;;;4972270;28;19933;-64
2020/12/12 02:53:47;;;;;;;;;;;;;;;;;;4970470;28;20017;-64
2020/12/12 02:56:14;;;;;;;;;;;;;;;;;;4971870;28;19926;-65
2020/12/12 02:58:42;;;;;;;;;;;;;;;;;;4971766;28;19926;-64
2020/12/12 03:01:09;;;;;;;;;;;;;;;;;;4971469;28;20013;-67
2020/12/12 03:03:36;;;;;;;;;;;;;;;;;;4972018;28;19930;-64
2020/12/12 03:06:03;;;;;;;;;;;;;;;;;;4973026;28;20037;-64
2020/12/12 03:08:30;;;;;;;;;;;;;;;;;;4981616;28;19926;-68
2020/12/12 03:10:57;;;;;;;;;;;;;;;;;;4969854;28;19934;-65
2020/12/12 03:13:24;;;;;;;;;;;;;;;;;;4971187;28;20357;-64
2020/12/12 03:15:52;;;;;;;;;;;;;;;;;;4972449;28;20017;-65
2020/12/12 03:18:19;;;;;;;;;;;;;;;;;;4971635;28;19984;-64
2020/12/12 03:20:46;;;;;;;;;;;;;;;;;;4971260;28;20017;-63
2020/12/12 03:23:13;;;;;;;;;;;;;;;;;;4971348;28;19934;-68
2020/12/12 03:25:40;;;;;;;;;;;;;;;;;;4971655;28;19957;-64
2020/12/12 03:28:08;;;;;;;;;;;;;;;;;;4971673;28;19936;-64
2020/12/12 03:30:35;;;;;;;;;;;;;;;;;;4971028;28;20046;-64
2020/12/12 03:33:02;;;;;;;;;;;;;;;;;;4969584;28;19930;-63
2020/12/12 03:35:29;;;;;;;;;;;;;;;;;;4971814;28;20034;-68
2020/12/12 03:37:56;;;;;;;;;;;;;;;;;;4971910;28;19926;-64
2020/12/12 03:40:31;;;;;;;;;;;;;;;;;;4970470;28;20280;-68
2020/12/12 03:42:59;;;;;;;;;;;;;;;;;;4968973;28;20008;-64
2020/12/12 03:45:26;;;;;;;;;;;;;;;;;;4971495;28;20396;-63
2020/12/12 03:47:53;;;;;;;;;;;;;;;;;;4971706;28;19926;-65
2020/12/12 03:50:27;;;;;;;;;;;;;;;;;;4971217;28;20009;-63
2020/12/12 03:52:54;;;;;;;;;;;;;;;;;;4971277;28;19937;-68
2020/12/12 03:55:21;;;;;;;;;;;;;;;;;;4971471;28;19930;-67
2020/12/12 03:57:48;;;;;;;;;;;;;;;;;;4971070;28;20029;-67
2020/12/12 04:00:15;;;;;;;;;;;;;;;;;;4971472;28;19926;-67
2020/12/12 04:02:42;;;;;;;;;;;;;;;;;;4970695;28;19930;-65
2020/12/12 04:05:09;;;;;;;;;;;;;;;;;;4971477;28;19932;-65
2020/12/12 04:07:37;;;;;;;;;;;;;;;;;;4972926;28;20289;-66
2020/12/12 04:10:04;;;;;;;;;;;;;;;;;;4974603;28;19930;-65
2020/12/12 04:12:31;;;;;;;;;;;;;;;;;;4975517;28;20374;-67
2020/12/12 04:14:58;;;;;;;;;;;;;;;;;;4974846;28;19934;-68
2020/12/12 04:17:25;;;;;;;;;;;;;;;;;;4975571;28;20009;-64
2020/12/12 04:19:52;;;;;;;;;;;;;;;;;;4969911;28;19933;-64
2020/12/12 04:22:19;;;;;;;;;;;;;;;;;;4928818;28;20025;-64
2020/12/12 04:24:46;;;;;;;;;;;;;;;;;;321002;28;10022000;-65
2020/12/12 04:27:13;;;;;;;;;;;;;;;;;;4982003;28;19930;-68
2020/12/12 04:29:40;;;;;;;;;;;;;;;;;;4976083;28;19926;-64
2020/12/12 04:32:08;;;;;;;;;;;;;;;;;;4978038;28;19930;-64
2020/12/12 04:34:35;;;;;;;;;;;;;;;;;;4968627;28;19933;-65
2020/12/12 04:37:02;;;;;;;;;;;;;;;;;;4975018;28;19933;-65
2020/12/12 04:39:29;;;;;;;;;;;;;;;;;;4974090;28;19929;-65
2020/12/12 04:41:56;;;;;;;;;;;;;;;;;;4975393;28;20460;-66
2020/12/12 04:44:23;;;;;;;;;;;;;;;;;;4974956;28;19930;-69
2020/12/12 04:46:50;;;;;;;;;;;;;;;;;;4973738;28;20461;-64
2020/12/12 04:49:18;;;;;;;;;;;;;;;;;;4973805;28;20361;-64
2020/12/12 04:51:45;;;;;;;;;;;;;;;;;;4975104;28;19926;-64
2020/12/12 04:54:12;;;;;;;;;;;;;;;;;;4974642;28;19969;-64
2020/12/12 04:56:39;;;;;;;;;;;;;;;;;;4972721;28;20396;-64
2020/12/12 04:59:07;;;;;;;;;;;;;;;;;;4974823;28;19930;-71
2020/12/12 05:01:34;;;;;;;;;;;;;;;;;;4961048;28;20021;-64
2020/12/12 05:04:01;;;;;;;;;;;;;;;;;;4973622;28;19933;-68
2020/12/12 05:06:28;;;;;;;;;;;;;;;;;;4976449;28;20020;-64
2020/12/12 05:08:55;;;;;;;;;;;;;;;;;;4980085;28;19926;-65
2020/12/12 05:11:22;;;;;;;;;;;;;;;;;;4991776;28;19926;-64
2020/12/12 05:13:50;;;;;;;;;;;;;;;;;;4984070;28;19977;-64
2020/12/12 05:16:17;;;;;;;;;;;;;;;;;;4984810;28;20036;-63
2020/12/12 05:18:44;;;;;;;;;;;;;;;;;;4972434;28;20321;-67
2020/12/12 05:21:11;;;;;;;;;;;;;;;;;;4973356;28;19926;-64
2020/12/12 05:23:38;;;;;;;;;;;;;;;;;;4974132;28;19934;-66
2020/12/12 05:26:05;;;;;;;;;;;;;;;;;;4979146;28;20479;-64
2020/12/12 05:28:32;;;;;;;;;;;;;;;;;;4974045;28;20297;-64
2020/12/12 05:30:59;;;;;;;;;;;;;;;;;;4973769;28;20017;-66
2020/12/12 05:33:27;;;;;;;;;;;;;;;;;;4963153;28;19933;-65
2020/12/12 05:35:54;;;;;;;;;;;;;;;;;;4973832;28;19934;-64
2020/12/12 05:38:21;;;;;;;;;;;;;;;;;;4974628;28;19950;-64
2020/12/12 05:40:48;;;;;;;;;;;;;;;;;;4977762;28;19985;-64
2020/12/12 05:43:15;;;;;;;;;;;;;;;;;;4973656;28;19926;-64
2020/12/12 05:45:42;;;;;;;;;;;;;;;;;;4973020;28;20020;-64
2020/12/12 05:48:10;;;;;;;;;;;;;;;;;;4973977;28;19930;-64
2020/12/12 05:50:37;;;;;;;;;;;;;;;;;;4973309;28;20374;-64
2020/12/12 05:53:04;;;;;;;;;;;;;;;;;;4973423;28;19936;-64
2020/12/12 05:55:31;;;;;;;;;;;;;;;;;;4973360;28;20319;-70
2020/12/12 05:57:58;;;;;;;;;;;;;;;;;;4972911;28;20013;-66
2020/12/12 06:00:25;;;;;;;;;;;;;;;;;;4972731;28;19934;-64
2020/12/12 06:02:53;;;;;;;;;;;;;;;;;;4972913;28;20021;-66
2020/12/12 06:05:20;;;;;;;;;;;;;;;;;;4972176;28;19933;-65
2020/12/12 06:07:47;;;;;;;;;;;;;;;;;;4972768;28;19936;-64
2020/12/12 06:10:14;;;;;;;;;;;;;;;;;;4972612;28;19942;-64
2020/12/12 06:12:41;;;;;;;;;;;;;;;;;;4972926;28;20005;-64
2020/12/12 06:15:08;;;;;;;;;;;;;;;;;;4973113;28;19936;-64
2020/12/12 06:17:35;;;;;;;;;;;;;;;;;;4972359;28;20374;-64
2020/12/12 06:20:02;;;;;;;;;;;;;;;;;;4972553;28;20013;-64
2020/12/12 06:22:29;;;;;;;;;;;;;;;;;;4972459;28;20290;-65
2020/12/12 06:24:56;;;;;;;;;;;;;;;;;;4973115;28;19941;-64
2020/12/12 06:27:23;;;;;;;;;;;;;;;;;;4973298;28;20437;-67
2020/12/12 06:29:51;;;;;;;;;;;;;;;;;;4981645;28;19932;-64
2020/12/12 06:32:19;;;;;;;;;;;;;;;;;;4971164;28;19981;-64
2020/12/12 06:34:46;;;;;;;;;;;;;;;;;;4975308;28;19948;-64
2020/12/12 06:37:13;;;;;;;;;;;;;;;;;;4972299;28;20246;-64
2020/12/12 06:39:40;;;;;;;;;;;;;;;;;;4972224;28;20016;-64
2020/12/12 06:42:07;;;;;;;;;;;;;;;;;;4972835;28;19957;-67
2020/12/12 06:44:34;;;;;;;;;;;;;;;;;;4972296;28;20025;-64
2020/12/12 06:47:01;;;;;;;;;;;;;;;;;;4972079;28;19933;-68
2020/12/12 06:49:29;;;;;;;;;;;;;;;;;;4971771;28;19930;-64
2020/12/12 06:51:56;;;;;;;;;;;;;;;;;;4971895;28;20020;-65
2020/12/12 06:54:23;;;;;;;;;;;;;;;;;;4972688;28;19932;-64
2020/12/12 06:56:50;;;;;;;;;;;;;;;;;;4971680;28;19936;-66
2020/12/12 06:59:17;;;;;;;;;;;;;;;;;;4969404;28;20020;-64
2020/12/12 07:01:44;;;;;;;;;;;;;;;;;;4964629;28;20009;-63
2020/12/12 07:04:11;;;;;;;;;;;;;;;;;;4972269;28;19926;-63
2020/12/12 07:06:38;;;;;;;;;;;;;;;;;;4970936;28;19956;-65
2020/12/12 07:09:06;;;;;;;;;;;;;;;;;;4967443;28;20021;-65
2020/12/12 07:11:33;;;;;;;;;;;;;;;;;;4971085;28;19952;-65
2020/12/12 07:14:00;;;;;;;;;;;;;;;;;;4971873;28;19926;-65
2020/12/12 07:16:27;;;;;;;;;;;;;;;;;;4970880;28;20032;-68
2020/12/12 07:18:54;;;;;;;;;;;;;;;;;;4979414;28;19930;-66
2020/12/12 07:21:21;;;;;;;;;;;;;;;;;;4979901;28;20025;-64
2020/12/12 07:23:49;;;;;;;;;;;;;;;;;;4976591;28;20404;-64
2020/12/12 07:26:16;;;;;;;;;;;;;;;;;;4990303;28;20028;-68
2020/12/12 07:28:43;;;;;;;;;;;;;;;;;;4977013;28;19965;-64
2020/12/12 07:31:11;;;;;;;;;;;;;;;;;;4971270;28;19941;-65
2020/12/12 07:33:38;;;;;;;;;;;;;;;;;;4953942;28;19936;-64
2020/12/12 07:36:05;;;;;;;;;;;;;;;;;;4983656;28;19929;-65
2020/12/12 07:38:32;;;;;;;;;;;;;;;;;;4972441;28;19930;-68
2020/12/12 07:40:59;;;;;;;;;;;;;;;;;;4974048;28;19934;-66
2020/12/12 07:43:26;;;;;;;;;;;;;;;;;;4968154;28;20296;-68
2020/12/12 07:46:00;;;;;;;;;;;;;;;;;;4967160;28;19930;-66
2020/12/12 07:48:27;;;;;;;;;;;;;;;;;;4968291;28;19926;-67
2020/12/12 07:50:55;;;;;;;;;;;;;;;;;;4967891;28;20017;-65
2020/12/12 07:53:22;;;;;;;;;;;;;;;;;;4967856;28;20016;-67
2020/12/12 07:55:49;;;;;;;;;;;;;;;;;;4966700;28;20359;-65
2020/12/12 07:58:17;;;;;;;;;;;;;;;;;;4959930;28;19927;-66
2020/12/12 08:00:44;;;;;;;;;;;;;;;;;;4960472;28;19938;-63
2020/12/12 08:03:11;;;;;;;;;;;;;;;;;;4965258;28;20349;-64
2020/12/12 08:05:38;;;;;;;;;;;;;;;;;;4968191;28;19930;-64
2020/12/12 08:08:06;;;;;;;;;;;;;;;;;;4967427;28;19936;-64
2020/12/12 08:10:33;;;;;;;;;;;;;;;;;;4967110;28;19936;-68
2020/12/12 08:13:00;;;;;;;;;;;;;;;;;;4967737;28;19930;-65
2020/12/12 08:15:31;;;;;;;;;;;;;;;;;;4968406;28;20252;-66
2020/12/12 08:17:59;;;;;;;;;;;;;;;;;;4967827;28;20151;-66
2020/12/12 08:20:27;;;;;;;;;;;;;;;;;;4966982;28;19930;-65
2020/12/12 08:22:56;;;;;;;;;;;;;;;;;;4967082;28;19934;-66
2020/12/12 08:25:24;;;;;;;;;;;;;;;;;;4967487;28;20008;-67
2020/12/12 08:27:51;;;;;;;;;;;;;;;;;;4969359;28;19934;-64
2020/12/12 08:30:19;;;;;;;;;;;;;;;;;;4967350;28;20148;-67
2020/12/12 08:32:47;;;;;;;;;;;;;;;;;;4958733;28;19938;-65
2020/12/12 08:35:14;;;;;;;;;;;;;;;;;;4963315;28;19930;-68
2020/12/12 08:37:41;;;;;;;;;;;;;;;;;;4967913;28;19977;-65
2020/12/12 08:40:09;;;;;;;;;;;;;;;;;;4950314;28;20468;-66
2020/12/12 08:42:36;;;;;;;;;;;;;;;;;;4965717;28;19940;-65
2020/12/12 08:45:03;;;;;;;;;;;;;;;;;;4967115;28;20109;-66
2020/12/12 08:47:30;;;;;;;;;;;;;;;;;;4962831;28;19969;-66
2020/12/12 08:49:57;;;;;;;;;;;;;;;;;;4965049;28;19934;-69
2020/12/12 08:52:24;;;;;;;;;;;;;;;;;;4965033;28;20017;-65
2020/12/12 08:54:52;;;;;;;;;;;;;;;;;;4970825;28;20461;-70
2020/12/12 08:57:19;;;;;;;;;;;;;;;;;;4966906;28;20053;-68
2020/12/12 08:59:46;;;;;;;;;;;;;;;;;;4969000;28;19968;-68
2020/12/12 09:02:14;;;;;;;;;;;;;;;;;;4966136;28;20025;-69
2020/12/12 09:04:41;;;;;;;;;;;;;;;;;;4971940;28;19926;-65
2020/12/12 09:07:08;;;;;;;;;;;;;;;;;;4972893;28;20029;-69
2020/12/12 09:09:36;;;;;;;;;;;;;;;;;;4969589;28;19930;-68
2020/12/12 09:12:03;;;;;;;;;;;;;;;;;;4964303;28;20033;-65
2020/12/12 09:14:30;;;;;;;;;;;;;;;;;;4970504;28;20397;-68
2020/12/12 09:16:57;;;;;;;;;;;;;;;;;;4970536;28;20740;-68
2020/12/12 09:19:25;;;;;;;;;;;;;;;;;;4962616;28;20365;-66
2020/12/12 09:21:52;;;;;;;;;;;;;;;;;;4971475;28;19930;-66
2020/12/12 09:24:19;;;;;;;;;;;;;;;;;;4970981;28;19926;-65
2020/12/12 09:26:47;;;;;;;;;;;;;;;;;;4970473;28;19930;-65
2020/12/12 09:29:14;;;;;;;;;;;;;;;;;;4969914;28;20305;-65
2020/12/12 09:31:41;;;;;;;;;;;;;;;;;;4968679;28;19927;-65
2020/12/12 09:34:08;;;;;;;;;;;;;;;;;;4978773;28;19948;-67
2020/12/12 09:36:36;;;;;;;;;;;;;;;;;;4990495;28;19983;-69
2020/12/12 09:39:03;;;;;;;;;;;;;;;;;;4971697;28;20334;-68
2020/12/12 09:41:30;;;;;;;;;;;;;;;;;;4967915;28;19934;-69
2020/12/12 09:43:57;;;;;;;;;;;;;;;;;;4971369;28;19926;-66
2020/12/12 09:46:24;;;;;;;;;;;;;;;;;;4966956;28;20593;-66
2020/12/12 09:48:51;;;;;;;;;;;;;;;;;;4971032;28;20455;-71
2020/12/12 09:51:18;;;;;;;;;;;;;;;;;;4971576;28;19930;-66
2020/12/12 09:53:45;;;;;;;;;;;;;;;;;;4970733;28;20016;-69
2020/12/12 09:56:13;;;;;;;;;;;;;;;;;;4969227;28;19981;-66
2020/12/12 09:58:40;;;;;;;;;;;;;;;;;;4970548;28;20029;-66
2020/12/12 10:01:10;;;;;;;;;;;;;;;;;;4970775;28;20353;-68
2020/12/12 10:03:37;;;;;;;;;;;;;;;;;;4970780;28;19936;-66
2020/12/12 10:06:04;;;;;;;;;;;;;;;;;;4970953;28;20371;-66
2020/12/12 10:08:31;;;;;;;;;;;;;;;;;;4971306;28;19977;-70
2020/12/12 10:10:58;;;;;;;;;;;;;;;;;;4969208;28;19936;-71
2020/12/12 10:13:26;;;;;;;;;;;;;;;;;;4971770;28;19976;-70
2020/12/12 10:15:53;;;;;;;;;;;;;;;;;;4970745;28;20044;-73
2020/12/12 10:18:20;;;;;;;;;;;;;;;;;;4963224;28;20361;-68
2020/12/12 10:20:47;;;;;;;;;;;;;;;;;;4966471;28;19977;-68
2020/12/12 10:23:14;;;;;;;;;;;;;;;;;;4978122;28;19930;-66
2020/12/12 10:25:42;;;;;;;;;;;;;;;;;;4950938;28;19981;-66
2020/12/12 10:28:10;;;;;;;;;;;;;;;;;;4960503;28;20029;-70
2020/12/12 10:30:37;;;;;;;;;;;;;;;;;;4969557;28;19961;-65
2020/12/12 10:33:04;;;;;;;;;;;;;;;;;;4966462;28;20329;-66
2020/12/12 10:35:31;;;;;;;;;;;;;;;;;;4970829;28;19961;-67
2020/12/12 10:37:59;;;;;;;;;;;;;;;;;;4969800;28;19948;-71
2020/12/12 10:40:29;;;;;;;;;;;;;;;;;;4968599;28;20417;-66
2020/12/12 10:42:56;;;;;;;;;;;;;;;;;;4969512;28;20776;-66
2020/12/12 10:45:23;;;;;;;;;;;;;;;;;;4976399;28;19936;-66
2020/12/12 10:47:51;;;;;;;;;;;;;;;;;;4971668;28;19970;-66
2020/12/12 10:50:18;;;;;;;;;;;;;;;;;;4969864;28;20262;-66
2020/12/12 10:52:46;;;;;;;;;;;;;;;;;;4969669;28;19960;-68
2020/12/12 10:55:13;;;;;;;;;;;;;;;;;;4965858;28;19958;-66
2020/12/12 10:57:40;;;;;;;;;;;;;;;;;;4952058;28;20003;-67
2020/12/12 11:00:08;;;;;;;;;;;;;;;;;;4984630;28;20527;-68
2020/12/12 11:02:35;;;;;;;;;;;;;;;;;;4982167;28;19977;-66
2020/12/12 11:05:03;;;;;;;;;;;;;;;;;;4967491;28;19934;-73
2020/12/12 11:07:43;;;;;;;;;;;;;;;;;;4970155;28;19926;-66
2020/12/12 11:10:10;;;;;;;;;;;;;;;;;;4969485;28;19934;-66
2020/12/12 11:12:37;;;;;;;;;;;;;;;;;;4969606;28;19930;-69
2020/12/12 11:15:07;;;;;;;;;;;;;;;;;;4969788;28;19926;-73
2020/12/12 11:17:34;;;;;;;;;;;;;;;;;;4954384;28;19936;-66
2020/12/12 11:20:02;;;;;;;;;;;;;;;;;;4968044;28;19926;-73
2020/12/12 11:22:29;;;;;;;;;;;;;;;;;;4969940;28;20021;-67
2020/12/12 11:24:56;;;;;;;;;;;;;;;;;;4969400;28;20018;-69
2020/12/12 11:27:23;;;;;;;;;;;;;;;;;;4970378;28;19930;-66
2020/12/12 11:29:51;;;;;;;;;;;;;;;;;;4968159;28;20369;-66
2020/12/12 11:32:19;;;;;;;;;;;;;;;;;;4968726;28;19937;-67
2020/12/12 11:34:50;;;;;;;;;;;;;;;;;;4968202;28;19926;-66
2020/12/12 11:37:40;;;;;;;;;;;;;;;;;;4968332;28;20020;-67
2020/12/12 11:40:13;;;;;;;;;;;;;;;;;;4969603;28;20025;-67
2020/12/12 11:42:59;;;;;;;;;;;;;;;;;;4968574;28;19969;-67
2020/12/12 11:45:47;;;;;;;;;;;;;;;;;;4969156;28;20047;-66
2020/12/12 11:48:14;;;;;;;;;;;;;;;;;;4967975;28;20026;-67
2020/12/12 11:50:41;;;;;;;;;;;;;;;;;;4969446;28;19930;-71
2020/12/12 11:53:09;;;;;;;;;;;;;;;;;;4963437;28;20449;-69
2020/12/12 11:55:36;;;;;;;;;;;;;;;;;;4966694;28;20025;-70
2020/12/12 11:58:03;;;;;;;;;;;;;;;;;;4968934;28;20393;-69
2020/12/12 12:00:30;;;;;;;;;;;;;;;;;;4968856;28;20360;-70
2020/12/12 12:02:58;;;;;;;;;;;;;;;;;;4968877;28;20021;-67
2020/12/12 12:05:38;;;;;;;;;;;;;;;;;;4969303;28;19937;-70
2020/12/12 12:08:12;;;;;;;;;;;;;;;;;;4970656;28;20440;-71
2020/12/12 12:10:41;;;;;;;;;;;;;;;;;;4969305;28;20018;-72
2020/12/12 12:13:09;;;;;;;;;;;;;;;;;;4968604;28;20025;-68
2020/12/12 12:15:36;;;;;;;;;;;;;;;;;;4969278;28;20393;-67
2020/12/12 12:18:04;;;;;;;;;;;;;;;;;;4969348;28;19936;-71
2020/12/12 12:20:31;;;;;;;;;;;;;;;;;;4971046;28;19981;-69
2020/12/12 12:22:58;;;;;;;;;;;;;;;;;;4974088;28;20349;-66
2020/12/12 12:25:25;;;;;;;;;;;;;;;;;;4969340;28;20386;-67
2020/12/12 12:27:52;;;;;;;;;;;;;;;;;;4968656;28;19930;-67
2020/12/12 12:30:19;;;;;;;;;;;;;;;;;;4971647;28;19932;-66
2020/12/12 12:32:47;;;;;;;;;;;;;;;;;;4964971;28;19930;-68
2020/12/12 12:35:14;;;;;;;;;;;;;;;;;;4967153;28;20013;-66
2020/12/12 12:37:41;;;;;;;;;;;;;;;;;;4970374;28;20008;-66
2020/12/12 12:40:08;;;;;;;;;;;;;;;;;;4968690;28;20018;-71
2020/12/12 12:42:35;;;;;;;;;;;;;;;;;;4963688;28;19941;-70
2020/12/12 12:45:03;;;;;;;;;;;;;;;;;;4968981;28;19952;-72
2020/12/12 12:47:30;;;;;;;;;;;;;;;;;;4970586;28;20017;-69
2020/12/12 12:49:57;;;;;;;;;;;;;;;;;;4980513;28;19926;-66
2020/12/12 12:52:24;;;;;;;;;;;;;;;;;;4969230;28;20033;-67
2020/12/12 12:54:52;;;;;;;;;;;;;;;;;;4968382;28;20004;-73
2020/12/12 12:57:19;;;;;;;;;;;;;;;;;;4969221;28;19936;-66
2020/12/12 12:59:46;;;;;;;;;;;;;;;;;;4968535;28;20144;-68
2020/12/12 13:02:13;;;;;;;;;;;;;;;;;;4969072;28;19937;-66
2020/12/12 13:04:41;;;;;;;;;;;;;;;;;;4968646;28;20452;-67
2020/12/12 13:07:08;;;;;;;;;;;;;;;;;;4968675;28;19959;-68
2020/12/12 13:09:36;;;;;;;;;;;;;;;;;;4968354;28;20259;-68
2020/12/12 13:12:03;;;;;;;;;;;;;;;;;;4969581;28;19930;-73
2020/12/12 13:14:34;;;;;;;;;;;;;;;;;;4966509;28;19930;-69
2020/12/12 13:17:02;;;;;;;;;;;;;;;;;;4952280;28;20670;-66
2020/12/12 13:19:33;;;;;;;;;;;;;;;;;;4964855;28;19965;-66
2020/12/12 13:22:02;;;;;;;;;;;;;;;;;;4969388;28;20013;-70
2020/12/12 13:24:30;;;;;;;;;;;;;;;;;;4968599;28;20028;-67
2020/12/12 13:26:58;;;;;;;;;;;;;;;;;;4969146;28;20732;-67
2020/12/12 13:29:48;;;;;;;;;;;;;;;;;;4968465;28;19977;-66
2020/12/12 13:32:15;;;;;;;;;;;;;;;;;;4966348;28;19994;-68
2020/12/12 13:34:42;;;;;;;;;;;;;;;;;;4969471;28;19930;-66
2020/12/12 13:37:10;;;;;;;;;;;;;;;;;;4969223;28;19930;-67
2020/12/12 13:39:37;;;;;;;;;;;;;;;;;;4967444;28;19969;-71
2020/12/12 13:42:04;;;;;;;;;;;;;;;;;;4967478;28;19934;-66
2020/12/12 13:44:31;;;;;;;;;;;;;;;;;;4968175;28;19965;-69
2020/12/12 13:46:59;;;;;;;;;;;;;;;;;;4969159;28;19930;-68
2020/12/12 13:49:26;;;;;;;;;;;;;;;;;;4966243;28;20397;-70
2020/12/12 13:51:53;;;;;;;;;;;;;;;;;;4967877;28;20028;-69
2020/12/12 13:54:20;;;;;;;;;;;;;;;;;;4965887;28;19934;-72
2020/12/12 13:56:48;;;;;;;;;;;;;;;;;;4967377;28;19930;-68
2020/12/12 13:59:15;;;;;;;;;;;;;;;;;;4966781;28;19933;-72
2020/12/12 14:01:42;;;;;;;;;;;;;;;;;;4967104;28;20025;-67
2020/12/12 14:04:09;;;;;;;;;;;;;;;;;;4966981;28;19926;-72
2020/12/12 14:06:36;;;;;;;;;;;;;;;;;;4970925;28;20367;-69
2020/12/12 14:09:25;;;;;;;;;;;;;;;;;;4966583;28;20002;-69
2020/12/12 14:22:59;;;;;;;;;;;;;;;;;;4962020;28;19936;-66
2020/12/12 14:25:26;;;;;;;;;;;;;;;;;;4967860;28;19988;-66
2020/12/12 14:30:44;;;;;;;;;;;;;;;;;;4952556;28;20061;-69
2020/12/12 14:33:11;;;;;;;;;;;;;;;;;;4966794;28;19930;-69
2020/12/12 14:35:39;;;;;;;;;;;;;;;;;;4956369;28;19930;-70
2020/12/12 14:38:06;;;;;;;;;;;;;;;;;;4964278;28;20417;-70
2020/12/12 14:40:33;;;;;;;;;;;;;;;;;;4958448;28;19934;-70
2020/12/12 14:43:00;;;;;;;;;;;;;;;;;;4950132;28;19950;-69
2020/12/12 14:45:30;;;;;;;;;;;;;;;;;;4965917;28;19976;-68
2020/12/12 14:47:57;;;;;;;;;;;;;;;;;;4960062;28;19940;-69
2020/12/12 14:50:24;;;;;;;;;;;;;;;;;;4965648;28;19929;-72
2020/12/12 14:52:51;;;;;;;;;;;;;;;;;;4967923;28;19934;-66
2020/12/12 14:55:19;;;;;;;;;;;;;;;;;;4957549;28;20727;-66
2020/12/12 14:57:46;;;;;;;;;;;;;;;;;;4960602;28;20029;-74
2020/12/12 15:00:13;;;;;;;;;;;;;;;;;;4966626;28;19997;-68
2020/12/12 15:02:40;;;;;;;;;;;;;;;;;;4966322;28;19937;-67
2020/12/12 15:05:08;;;;;;;;;;;;;;;;;;4968296;28;19955;-66
2020/12/12 15:07:35;;;;;;;;;;;;;;;;;;4969301;28;19926;-66
2020/12/12 15:10:02;;;;;;;;;;;;;;;;;;4969070;28;19930;-69
2020/12/12 15:12:30;;;;;;;;;;;;;;;;;;4969261;28;20279;-69
2020/12/12 15:14:57;;;;;;;;;;;;;;;;;;4967116;28;20374;-72
2020/12/12 15:17:26;;;;;;;;;;;;;;;;;;4968656;28;19926;-66
2020/12/12 15:19:53;;;;;;;;;;;;;;;;;;4969273;28;20234;-70
2020/12/12 15:22:20;;;;;;;;;;;;;;;;;;4969731;28;20049;-66
2020/12/12 15:24:47;;;;;;;;;;;;;;;;;;4961548;28;20271;-67
2020/12/12 15:27:14;;;;;;;;;;;;;;;;;;4965774;28;20396;-69
2020/12/12 15:29:42;;;;;;;;;;;;;;;;;;4968706;28;19938;-69
2020/12/12 15:32:11;;;;;;;;;;;;;;;;;;4967390;28;20024;-71
2020/12/12 15:34:38;;;;;;;;;;;;;;;;;;4965543;28;19930;-65
2020/12/12 15:37:06;;;;;;;;;;;;;;;;;;4969329;28;19930;-67
2020/12/12 15:39:33;;;;;;;;;;;;;;;;;;4968330;28;19938;-71
2020/12/12 15:42:00;;;;;;;;;;;;;;;;;;4968435;28;19985;-68
2020/12/12 15:44:27;;;;;;;;;;;;;;;;;;4968427;28;19930;-73
2020/12/12 15:46:54;;;;;;;;;;;;;;;;;;4967729;28;19934;-66
2020/12/12 15:49:24;;;;;;;;;;;;;;;;;;4966248;28;19934;-65
2020/12/12 15:51:51;;;;;;;;;;;;;;;;;;4965310;28;20410;-67
2020/12/12 15:54:18;;;;;;;;;;;;;;;;;;4970873;28;19936;-66
2020/12/12 15:56:45;;;;;;;;;;;;;;;;;;4967835;28;20020;-73
2020/12/12 15:59:12;;;;;;;;;;;;;;;;;;4960004;28;19986;-70
2020/12/12 16:01:39;;;;;;;;;;;;;;;;;;4953750;28;19965;-66
2020/12/12 16:04:07;;;;;;;;;;;;;;;;;;4972340;28;19926;-68
2020/12/12 16:06:34;;;;;;;;;;;;;;;;;;4972421;28;19934;-69
2020/12/12 16:09:01;;;;;;;;;;;;;;;;;;4973268;28;19977;-73
2020/12/12 16:11:29;;;;;;;;;;;;;;;;;;4972272;28;19984;-70
2020/12/12 16:13:56;;;;;;;;;;;;;;;;;;4972537;28;19976;-65
2020/12/12 16:16:23;;;;;;;;;;;;;;;;;;4972266;28;19930;-66
2020/12/12 16:18:51;;;;;;;;;;;;;;;;;;4971373;28;19941;-66
2020/12/12 16:21:19;;;;;;;;;;;;;;;;;;4970837;28;19934;-67
2020/12/12 16:23:46;;;;;;;;;;;;;;;;;;4982213;28;19930;-64
2020/12/12 16:26:13;;;;;;;;;;;;;;;;;;4977515;28;20255;-68
2020/12/12 16:28:40;;;;;;;;;;;;;;;;;;4971553;28;20021;-66
2020/12/12 16:31:07;;;;;;;;;;;;;;;;;;4971615;28;20004;-67
2020/12/12 16:33:35;;;;;;;;;;;;;;;;;;4958035;28;19939;-65
2020/12/12 16:36:02;;;;;;;;;;;;;;;;;;4965725;28;19933;-64
2020/12/12 16:38:29;;;;;;;;;;;;;;;;;;4971372;28;20049;-63
2020/12/12 16:40:57;;;;;;;;;;;;;;;;;;4970512;28;20029;-71
2020/12/12 16:43:24;;;;;;;;;;;;;;;;;;4962068;28;20548;-64
2020/12/12 16:45:51;;;;;;;;;;;;;;;;;;4964159;28;19968;-64
2020/12/12 16:48:18;;;;;;;;;;;;;;;;;;4972302;28;20337;-68
2020/12/12 16:50:45;;;;;;;;;;;;;;;;;;4971270;28;20400;-64
2020/12/12 16:53:13;;;;;;;;;;;;;;;;;;4972722;28;20377;-63
2020/12/12 16:55:40;;;;;;;;;;;;;;;;;;4971659;28;19926;-68
2020/12/12 16:58:07;;;;;;;;;;;;;;;;;;4971595;28;19933;-67
2020/12/12 17:00:37;;;;;;;;;;;;;;;;;;4972679;28;20365;-67
2020/12/12 17:03:08;;;;;;;;;;;;;;;;;;4971966;28;20353;-70